| time (UTC) | temp C | wind direction | speed KPH | gust KPH | rain 1hr cm | rain 24hr cm | rain mn cm | humidity % | barometer mb |
| 20260502185517 | 18 | 293 | 14.5 | 24.1 | 0.00 | 0.00 | 0.00 | 17 | 1023.5 |
| 20260502184557 | 18 | 270 | 19.3 | 30.6 | 0.00 | 0.00 | 0.00 | 17 | 1023.6 |
| 20260502183537 | 18 | 225 | 9.7 | 24.1 | 0.00 | 0.00 | 0.00 | 17 | 1023.8 |
| 20260502182517 | 18 | 248 | 12.9 | 20.9 | 0.00 | 0.00 | 0.00 | 14 | 1023.9 |
| 20260502181557 | 18 | 270 | 14.5 | 22.5 | 0.00 | 0.00 | 0.00 | 18 | 1024.5 |
| 20260502180517 | 17 | 203 | 9.7 | 22.5 | 0.00 | 0.00 | 0.00 | 18 | 1024.3 |
| 20260502170517 | 17 | 225 | 6.4 | 17.7 | 0.00 | 0.00 | 0.00 | 17 | 1025.2 |
| 20260502163517 | 16 | 315 | 3.2 | 9.7 | 0.00 | 0.00 | 0.00 | 19 | 1025.3 |
| 20260502162517 | 16 | 113 | 3.2 | 4.8 | 0.00 | 0.00 | 0.00 | 16 | 1025.3 |
| 20260502161517 | 15 | 113 | 4.8 | 8.0 | 0.00 | 0.00 | 0.00 | 20 | 1025.4 |
| 20260502160517 | 14 | 135 | 6.4 | 11.3 | 0.00 | 0.00 | 0.00 | 21 | 1025.2 |
| 20260502151517 | 10 | 90 | 9.7 | 14.5 | 0.00 | 0.00 | 0.00 | 33 | 1025.7 |
| 20260502150537 | 9 | 113 | 8.0 | 14.5 | 0.00 | 0.00 | 0.00 | 37 | 1025.8 |
| 20260502130517 | -1 | 0.0 | 0.0 | 0.00 | 0.00 | 0.00 | 64 | 1024.5 | |
| 20260502123517 | -2 | 0.0 | 3.2 | 0.00 | 0.00 | 0.00 | 63 | 1024.0 | |
| 20260502122518 | -2 | 0.0 | 3.2 | 0.00 | 0.00 | 0.00 | 63 | 1023.9 | |
| 20260502121557 | -2 | 0.0 | 0.0 | 0.00 | 0.00 | 0.00 | 62 | 1024.0 | |
| 20260502120537 | -2 | 0.0 | 0.0 | 0.00 | 0.00 | 0.00 | 62 | 1024.0 | |
| 20260502115537 | -2 | 0.0 | 3.2 | 0.00 | 0.00 | 0.00 | 62 | 1024.5 | |
| 20260502114537 | -2 | 0.0 | 0.0 | 0.00 | 0.00 | 0.00 | 62 | 1024.5 | |
| 20260502113517 | -1 | 90 | 1.6 | 4.8 | 0.00 | 0.00 | 0.00 | 62 | 1024.4 |
| 20260502112516 | -1 | 90 | 3.2 | 4.8 | 0.00 | 0.00 | 0.00 | 62 | 1024.4 |
| 20260502111516 | -1 | 0.0 | 0.0 | 0.00 | 0.00 | 0.00 | 62 | 1024.5 | |
| 20260502110557 | -1 | 90 | 1.6 | 4.8 | 0.00 | 0.00 | 0.00 | 62 | 1024.6 |
| 20260502105517 | -1 | 0.0 | 3.2 | 0.00 | 0.00 | 0.00 | 62 | 1024.5 | |
| 20260502104537 | -1 | 90 | 3.2 | 6.4 | 0.00 | 0.00 | 0.00 | 62 | 1024.5 |
| 20260502103556 | -1 | 90 | 3.2 | 6.4 | 0.00 | 0.00 | 0.00 | 62 | 1024.4 |
| 20260502102516 | -1 | 68 | 1.6 | 6.4 | 0.00 | 0.00 | 0.00 | 60 | 1024.4 |
| 20260502101516 | -1 | 0.0 | 0.0 | 0.00 | 0.00 | 0.00 | 60 | 1024.7 | |
| 20260502100536 | -1 | 0.0 | 0.0 | 0.00 | 0.00 | 0.00 | 60 | 1024.8 | |
| 20260502090518 | 0 | 0.0 | 3.2 | 0.00 | 0.00 | 0.00 | 59 | 1024.8 | |
| 20260502070558 | 1 | 0.0 | 0.0 | 0.00 | 0.00 | 0.00 | 53 | 1024.8 | |
| 20260502065538 | 1 | 0.0 | 0.0 | 0.00 | 0.00 | 0.00 | 54 | 1024.9 | |
| 20260502064536 | 1 | 23 | 1.6 | 4.8 | 0.00 | 0.00 | 0.00 | 54 | 1024.9 |
| 20260502063518 | 2 | 23 | 3.2 | 4.8 | 0.00 | 0.00 | 0.00 | 52 | 1024.6 |
| 20260502062516 | 2 | 0.0 | 3.2 | 0.00 | 0.00 | 0.00 | 50 | 1024.6 | |
| 20260502060516 | 2 | 0.0 | 0.0 | 0.00 | 0.00 | 0.00 | 50 | 1024.5 | |
| 20260502055516 | 2 | 0.0 | 0.0 | 0.00 | 0.00 | 0.00 | 49 | 1024.3 | |
| 20260502054556 | 3 | 315 | 3.2 | 6.4 | 0.00 | 0.00 | 0.00 | 51 | 1023.9 |
| 20260502053518 | 2 | 315 | 3.2 | 4.8 | 0.00 | 0.00 | 0.00 | 50 | 1023.9 |
| 20260502052558 | 3 | 0.0 | 0.0 | 0.00 | 0.00 | 0.00 | 48 | 1023.8 | |
| 20260502051538 | 3 | 0.0 | 0.0 | 0.00 | 0.00 | 0.00 | 47 | 1024.0 | |
| 20260502050518 | 3 | 0.0 | 0.0 | 0.00 | 0.00 | 0.00 | 45 | 1024.0 | |
| 20260502045618 | 4 | 0.0 | 1.6 | 0.00 | 0.00 | 0.00 | 44 | 1023.9 | |
| 20260502044558 | 4 | 0.0 | 0.0 | 0.00 | 0.00 | 0.00 | 42 | 1023.9 | |
| 20260502043516 | 5 | 315 | 1.6 | 3.2 | 0.00 | 0.00 | 0.00 | 41 | 1023.9 |
| 20260502042556 | 5 | 0.0 | 0.0 | 0.00 | 0.00 | 0.00 | 42 | 1023.8 | |
| 20260502041518 | 5 | 0.0 | 0.0 | 0.00 | 0.00 | 0.00 | 39 | 1023.8 | |
| 20260502040518 | 6 | 0.0 | 0.0 | 0.00 | 0.00 | 0.00 | 38 | 1023.3 | |
| 20260502035518 | 6 | 0.0 | 0.0 | 0.00 | 0.00 | 0.00 | 39 | 1023.2 | |
| 20260502034538 | 7 | 0.0 | 0.0 | 0.00 | 0.00 | 0.00 | 36 | 1023.4 | |
| 20260502033538 | 7 | 0.0 | 1.6 | 0.00 | 0.00 | 0.00 | 33 | 1023.3 | |
| 20260502032558 | 8 | 315 | 1.6 | 3.2 | 0.00 | 0.00 | 0.00 | 32 | 1023.1 |
| 20260502031516 | 10 | 0.0 | 0.0 | 0.00 | 0.00 | 0.00 | 31 | 1023.4 | |
| 20260502030516 | 11 | 0.0 | 3.2 | 0.00 | 0.00 | 0.00 | 28 | 1023.4 | |
| 20260502025516 | 12 | 315 | 1.6 | 4.8 | 0.00 | 0.00 | 0.00 | 25 | 1023.5 |
| 20260502024518 | 13 | 315 | 1.6 | 4.8 | 0.00 | 0.00 | 0.00 | 22 | 1023.4 |
| 20260502023518 | 14 | 315 | 3.2 | 6.4 | 0.00 | 0.00 | 0.00 | 16 | 1023.3 |
| 20260502022518 | 15 | 293 | 4.8 | 6.4 | 0.00 | 0.00 | 0.00 | 14 | 1022.8 |
| 20260502021517 | 16 | 270 | 4.8 | 8.0 | 0.00 | 0.00 | 0.00 | 13 | 1022.7 |
| 20260502020518 | 16 | 248 | 4.8 | 8.0 | 0.00 | 0.00 | 0.00 | 13 | 1022.7 |
| 20260502015658 | 16 | 248 | 8.0 | 12.9 | 0.00 | 0.00 | 0.00 | 12 | 1022.2 |
| 20260502014516 | 16 | 248 | 6.4 | 12.9 | 0.00 | 0.00 | 0.00 | 13 | 1021.4 |
| 20260502013558 | 17 | 248 | 8.0 | 16.1 | 0.00 | 0.00 | 0.00 | 14 | 1021.4 |
| 20260502012658 | 17 | 248 | 11.3 | 17.7 | 0.00 | 0.00 | 0.00 | 12 | 1021.3 |
| 20260502011538 | 17 | 248 | 9.7 | 14.5 | 0.00 | 0.00 | 0.00 | 12 | 1021.5 |
| 20260502010517 | 17 | 248 | 12.9 | 20.9 | 0.00 | 0.00 | 0.00 | 11 | 1021.2 |
| 20260502005537 | 17 | 248 | 9.7 | 16.1 | 0.00 | 0.00 | 0.00 | 11 | 1021.2 |
| 20260502004537 | 17 | 248 | 12.9 | 24.1 | 0.00 | 0.00 | 0.00 | 13 | 1021.2 |
| 20260502003537 | 18 | 270 | 14.5 | 19.3 | 0.00 | 0.00 | 0.00 | 12 | 1021.7 |
| 20260502002517 | 18 | 203 | 12.9 | 17.7 | 0.00 | 0.00 | 0.00 | 11 | 1021.6 |
| 20260502001517 | 18 | 248 | 9.7 | 17.7 | 0.00 | 0.00 | 0.00 | 12 | 1021.5 |
| 20260502000517 | 18 | 248 | 14.5 | 24.1 | 0.00 | 0.00 | 0.00 | 11 | 1021.6 |
| 20260501235517 | 18 | 225 | 9.7 | 16.1 | 0.00 | 0.00 | 0.00 | 13 | 1021.7 |
| 20260501234518 | 18 | 225 | 14.5 | 20.9 | 0.00 | 0.00 | 0.00 | 11 | 1021.7 |
| 20260501233537 | 18 | 225 | 6.4 | 14.5 | 0.00 | 0.00 | 0.00 | 10 | 1021.7 |
| 20260501232517 | 18 | 180 | 4.8 | 17.7 | 0.00 | 0.00 | 0.00 | 11 | 1022.1 |
| 20260501231537 | 18 | 203 | 9.7 | 19.3 | 0.00 | 0.00 | 0.00 | 13 | 1022.2 |
| 20260501230517 | 18 | 248 | 16.1 | 24.1 | 0.00 | 0.00 | 0.00 | 13 | 1022.3 |
| 20260501225537 | 18 | 248 | 4.8 | 12.9 | 0.00 | 0.00 | 0.00 | 12 | 1022.4 |
| 20260501224517 | 18 | 270 | 11.3 | 17.7 | 0.00 | 0.00 | 0.00 | 15 | 1022.7 |
| 20260501223617 | 18 | 270 | 9.7 | 20.9 | 0.00 | 0.00 | 0.00 | 14 | 1022.8 |
| 20260501222617 | 18 | 225 | 12.9 | 20.9 | 0.00 | 0.00 | 0.00 | 13 | 1022.9 |
| 20260501221537 | 18 | 225 | 9.7 | 20.9 | 0.00 | 0.00 | 0.00 | 14 | 1023.5 |
| 20260501215537 | 18 | 270 | 12.9 | 22.5 | 0.00 | 0.00 | 0.00 | 14 | 1023.5 |
| 20260501214537 | 18 | 270 | 14.5 | 24.1 | 0.00 | 0.00 | 0.00 | 16 | 1023.6 |
| 20260501213637 | 18 | 248 | 14.5 | 27.4 | 0.00 | 0.00 | 0.00 | 13 | 1023.5 |
| 20260501212617 | 18 | 225 | 9.7 | 19.3 | 0.00 | 0.00 | 0.00 | 14 | 1024.2 |
| 20260501211517 | 18 | 180 | 14.5 | 20.9 | 0.00 | 0.00 | 0.00 | 14 | 1023.8 |
| 20260501210537 | 18 | 180 | 12.9 | 25.7 | 0.00 | 0.00 | 0.00 | 13 | 1024.2 |
| 20260501205617 | 17 | 203 | 12.9 | 22.5 | 0.00 | 0.00 | 0.00 | 15 | 1023.9 |
| 20260501204517 | 17 | 203 | 9.7 | 19.3 | 0.00 | 0.00 | 0.00 | 18 | 1024.0 |
| 20260501203537 | 17 | 270 | 14.5 | 19.3 | 0.00 | 0.00 | 0.00 | 16 | 1024.4 |
| 20260501202517 | 17 | 225 | 6.4 | 16.1 | 0.00 | 0.00 | 0.00 | 16 | 1024.0 |
| 20260501201617 | 17 | 248 | 9.7 | 19.3 | 0.00 | 0.00 | 0.00 | 15 | 1024.5 |
| 20260501200637 | 17 | 225 | 12.9 | 22.5 | 0.00 | 0.00 | 0.00 | 17 | 1024.6 |
| 20260501195557 | 17 | 248 | 8.0 | 22.5 | 0.00 | 0.00 | 0.00 | 18 | 1024.8 |
| 20260501194517 | 16 | 225 | 8.0 | 14.5 | 0.00 | 0.00 | 0.00 | 17 | 1024.3 |
| 20260501193517 | 16 | 225 | 6.4 | 19.3 | 0.00 | 0.00 | 0.00 | 18 | 1024.9 |
| 20260501192517 | 16 | 225 | 11.3 | 16.1 | 0.00 | 0.00 | 0.00 | 18 | 1025.0 |
| 20260501191517 | 16 | 203 | 9.7 | 22.5 | 0.00 | 0.00 | 0.00 | 18 | 1025.1 |
| 20260501190537 | 16 | 135 | 9.7 | 16.1 | 0.00 | 0.00 | 0.00 | 18 | 1025.2 |